ADDS METAR Data

Data at: 1823 UTC 20 Jul 2018

METAR for:KIWI (Wiscasset Arpt, ME, US)
Text:KIWI 201753Z AUTO 14007KT 10SM CLR 26/14 A3019 RMK AO2 SLP224 T02610144 10267 20178 58002
Temperature: 26.1°C ( 79°F)
Dewpoint: 14.4°C ( 58°F) [RH = 49%]
Pressure (altimeter):30.19 inches Hg (1022.4 mb) [Sea level pressure: 1022.4 mb]
Winds:from the SE (140 degrees) at 8 MPH (7 knots; 3.6 m/s)
Visibility:10 or more sm (16+ km)
Ceiling:at least 12,000 feet AGL
Clouds:sky clear below 12,000 feet AGL
QC Flag:automated observation with no human augmentation